sensor_id;sensor_type;location;lat;lon;timestamp;temperature;humidity
75821;DHT22;64454;51.984;9.838;2023-07-16T00:02:20;23.80;1.00
75821;DHT22;64454;51.984;9.838;2023-07-16T00:04:48;23.70;1.00
75821;DHT22;64454;51.984;9.838;2023-07-16T00:07:15;23.80;1.00
75821;DHT22;64454;51.984;9.838;2023-07-16T00:09:43;23.80;1.00
75821;DHT22;64454;51.984;9.838;2023-07-16T00:12:10;23.80;1.00
75821;DHT22;64454;51.984;9.838;2023-07-16T00:14:37;23.70;1.00
75821;DHT22;64454;51.984;9.838;2023-07-16T00:17:04;23.60;1.00
75821;DHT22;64454;51.984;9.838;2023-07-16T00:19:31;23.50;1.00
75821;DHT22;64454;51.984;9.838;2023-07-16T00:21:59;23.60;1.00
75821;DHT22;64454;51.984;9.838;2023-07-16T00:24:26;23.60;1.00
75821;DHT22;64454;51.984;9.838;2023-07-16T00:26:53;23.60;1.00
75821;DHT22;64454;51.984;9.838;2023-07-16T00:29:21;23.70;1.00
75821;DHT22;64454;51.984;9.838;2023-07-16T00:31:47;23.70;1.00
75821;DHT22;64454;51.984;9.838;2023-07-16T00:34:16;23.50;1.00
75821;DHT22;64454;51.984;9.838;2023-07-16T00:36:44;23.50;10.20
75821;DHT22;64454;51.984;9.838;2023-07-16T00:39:13;23.50;12.30
75821;DHT22;64454;51.984;9.838;2023-07-16T00:41:42;23.40;17.80
75821;DHT22;64454;51.984;9.838;2023-07-16T00:44:09;23.40;21.00
75821;DHT22;64454;51.984;9.838;2023-07-16T00:46:36;23.30;33.70
75821;DHT22;64454;51.984;9.838;2023-07-16T00:49:04;23.20;53.30
75821;DHT22;64454;51.984;9.838;2023-07-16T00:51:31;23.10;61.40
75821;DHT22;64454;51.984;9.838;2023-07-16T00:53:59;22.90;77.90
75821;DHT22;64454;51.984;9.838;2023-07-16T00:56:27;22.80;99.90
75821;DHT22;64454;51.984;9.838;2023-07-16T00:58:55;22.70;99.90
75821;DHT22;64454;51.984;9.838;2023-07-16T01:01:22;22.70;99.90
75821;DHT22;64454;51.984;9.838;2023-07-16T01:03:49;22.70;99.90
75821;DHT22;64454;51.984;9.838;2023-07-16T01:06:22;22.80;99.90
75821;DHT22;64454;51.984;9.838;2023-07-16T01:09:03;22.80;99.90
75821;DHT22;64454;51.984;9.838;2023-07-16T01:11:36;22.80;99.90
75821;DHT22;64454;51.984;9.838;2023-07-16T01:14:07;22.90;99.90
75821;DHT22;64454;51.984;9.838;2023-07-16T01:16:34;22.90;99.90
75821;DHT22;64454;51.984;9.838;2023-07-16T01:19:02;22.90;99.90
75821;DHT22;64454;51.984;9.838;2023-07-16T01:21:33;22.90;99.90
75821;DHT22;64454;51.984;9.838;2023-07-16T01:24:31;23.00;99.90
75821;DHT22;64454;51.984;9.838;2023-07-16T01:27:33;22.90;99.90
75821;DHT22;64454;51.984;9.838;2023-07-16T01:30:15;22.90;99.90
75821;DHT22;64454;51.984;9.838;2023-07-16T01:32:44;22.80;94.00
75821;DHT22;64454;51.984;9.838;2023-07-16T01:35:12;22.80;99.90
75821;DHT22;64454;51.984;9.838;2023-07-16T01:37:41;22.90;99.90
75821;DHT22;64454;51.984;9.838;2023-07-16T01:40:09;22.90;81.00
75821;DHT22;64454;51.984;9.838;2023-07-16T01:42:36;23.00;77.30
75821;DHT22;64454;51.984;9.838;2023-07-16T01:45:04;23.00;83.10
75821;DHT22;64454;51.984;9.838;2023-07-16T01:47:40;23.00;70.30
75821;DHT22;64454;51.984;9.838;2023-07-16T01:50:14;22.90;85.70
75821;DHT22;64454;51.984;9.838;2023-07-16T01:52:41;22.90;77.30
75821;DHT22;64454;51.984;9.838;2023-07-16T01:55:08;22.90;83.20
75821;DHT22;64454;51.984;9.838;2023-07-16T01:57:35;22.90;72.90
75821;DHT22;64454;51.984;9.838;2023-07-16T02:00:03;23.00;71.20
75821;DHT22;64454;51.984;9.838;2023-07-16T02:02:30;23.00;54.30
75821;DHT22;64454;51.984;9.838;2023-07-16T02:04:59;23.10;36.70
75821;DHT22;64454;51.984;9.838;2023-07-16T02:07:26;23.30;27.70
75821;DHT22;64454;51.984;9.838;2023-07-16T02:09:54;23.30;16.90
75821;DHT22;64454;51.984;9.838;2023-07-16T02:12:20;23.30;8.50
75821;DHT22;64454;51.984;9.838;2023-07-16T02:14:48;23.20;1.00
75821;DHT22;64454;51.984;9.838;2023-07-16T02:17:15;23.10;1.00
75821;DHT22;64454;51.984;9.838;2023-07-16T02:19:42;23.00;1.00
75821;DHT22;64454;51.984;9.838;2023-07-16T02:22:10;23.00;1.00
75821;DHT22;64454;51.984;9.838;2023-07-16T02:24:37;23.00;1.00
75821;DHT22;64454;51.984;9.838;2023-07-16T02:27:05;22.90;1.00
75821;DHT22;64454;51.984;9.838;2023-07-16T02:29:32;22.80;1.00
75821;DHT22;64454;51.984;9.838;2023-07-16T02:31:59;22.70;1.00
75821;DHT22;64454;51.984;9.838;2023-07-16T02:34:26;22.70;1.00
75821;DHT22;64454;51.984;9.838;2023-07-16T02:36:53;22.70;1.00
75821;DHT22;64454;51.984;9.838;2023-07-16T02:39:21;22.70;1.00
75821;DHT22;64454;51.984;9.838;2023-07-16T02:41:50;22.70;1.00
75821;DHT22;64454;51.984;9.838;2023-07-16T02:44:18;22.70;1.00
75821;DHT22;64454;51.984;9.838;2023-07-16T02:46:46;22.70;1.00
75821;DHT22;64454;51.984;9.838;2023-07-16T02:49:14;22.80;1.00
75821;DHT22;64454;51.984;9.838;2023-07-16T02:51:43;22.70;1.00
75821;DHT22;64454;51.984;9.838;2023-07-16T02:54:10;22.70;1.00
75821;DHT22;64454;51.984;9.838;2023-07-16T02:56:38;22.70;1.00
75821;DHT22;64454;51.984;9.838;2023-07-16T02:59:06;22.60;1.00
75821;DHT22;64454;51.984;9.838;2023-07-16T03:01:33;22.60;1.00
75821;DHT22;64454;51.984;9.838;2023-07-16T03:04:00;22.50;1.00
75821;DHT22;64454;51.984;9.838;2023-07-16T03:06:27;22.40;1.00
75821;DHT22;64454;51.984;9.838;2023-07-16T03:08:54;22.40;1.00
75821;DHT22;64454;51.984;9.838;2023-07-16T03:11:20;22.40;1.00
75821;DHT22;64454;51.984;9.838;2023-07-16T03:13:49;22.40;1.00
75821;DHT22;64454;51.984;9.838;2023-07-16T03:16:16;22.50;1.00
75821;DHT22;64454;51.984;9.838;2023-07-16T03:18:44;22.50;1.00
75821;DHT22;64454;51.984;9.838;2023-07-16T03:21:11;22.50;1.00
75821;DHT22;64454;51.984;9.838;2023-07-16T03:23:38;22.50;1.00
75821;DHT22;64454;51.984;9.838;2023-07-16T03:26:05;22.50;1.00
75821;DHT22;64454;51.984;9.838;2023-07-16T03:28:32;22.50;1.00
75821;DHT22;64454;51.984;9.838;2023-07-16T03:31:01;22.50;1.00
75821;DHT22;64454;51.984;9.838;2023-07-16T03:33:28;22.50;1.00
75821;DHT22;64454;51.984;9.838;2023-07-16T03:35:55;22.40;1.00
75821;DHT22;64454;51.984;9.838;2023-07-16T03:38:22;22.30;1.00
75821;DHT22;64454;51.984;9.838;2023-07-16T03:40:49;22.20;1.00
75821;DHT22;64454;51.984;9.838;2023-07-16T03:43:17;22.20;1.00
75821;DHT22;64454;51.984;9.838;2023-07-16T03:45:44;22.00;1.00
75821;DHT22;64454;51.984;9.838;2023-07-16T03:48:13;22.00;1.00
75821;DHT22;64454;51.984;9.838;2023-07-16T03:50:40;21.80;1.00
75821;DHT22;64454;51.984;9.838;2023-07-16T03:53:07;21.70;1.00
75821;DHT22;64454;51.984;9.838;2023-07-16T03:55:34;21.60;1.00
75821;DHT22;64454;51.984;9.838;2023-07-16T03:58:02;21.50;1.00
75821;DHT22;64454;51.984;9.838;2023-07-16T04:00:28;21.50;1.00
75821;DHT22;64454;51.984;9.838;2023-07-16T04:02:55;21.50;1.00
75821;DHT22;64454;51.984;9.838;2023-07-16T04:05:24;21.50;1.00
75821;DHT22;64454;51.984;9.838;2023-07-16T04:07:51;21.50;1.00
75821;DHT22;64454;51.984;9.838;2023-07-16T04:10:18;21.50;1.00
75821;DHT22;64454;51.984;9.838;2023-07-16T04:12:45;21.40;1.00
75821;DHT22;64454;51.984;9.838;2023-07-16T04:15:12;21.40;1.00
75821;DHT22;64454;51.984;9.838;2023-07-16T04:17:39;21.40;1.00
75821;DHT22;64454;51.984;9.838;2023-07-16T04:20:07;21.30;1.00
75821;DHT22;64454;51.984;9.838;2023-07-16T04:22:36;21.40;1.00
75821;DHT22;64454;51.984;9.838;2023-07-16T04:25:03;21.30;1.00
75821;DHT22;64454;51.984;9.838;2023-07-16T04:27:31;21.40;1.00
75821;DHT22;64454;51.984;9.838;2023-07-16T04:29:57;21.30;1.00
75821;DHT22;64454;51.984;9.838;2023-07-16T04:32:24;21.30;1.00
75821;DHT22;64454;51.984;9.838;2023-07-16T04:34:51;21.30;1.00
75821;DHT22;64454;51.984;9.838;2023-07-16T04:37:18;21.30;1.00
75821;DHT22;64454;51.984;9.838;2023-07-16T04:39:46;21.30;1.00
75821;DHT22;64454;51.984;9.838;2023-07-16T04:42:13;21.30;1.00
75821;DHT22;64454;51.984;9.838;2023-07-16T04:44:42;21.30;1.00
75821;DHT22;64454;51.984;9.838;2023-07-16T04:47:09;21.20;1.00
75821;DHT22;64454;51.984;9.838;2023-07-16T04:49:36;21.20;1.00
75821;DHT22;64454;51.984;9.838;2023-07-16T04:52:03;21.30;1.00
75821;DHT22;64454;51.984;9.838;2023-07-16T04:54:35;21.40;1.00
75821;DHT22;64454;51.984;9.838;2023-07-16T04:57:06;21.50;1.00
75821;DHT22;64454;51.984;9.838;2023-07-16T04:59:34;21.50;1.00
75821;DHT22;64454;51.984;9.838;2023-07-16T05:02:04;21.50;1.00
75821;DHT22;64454;51.984;9.838;2023-07-16T05:04:32;21.50;1.00
75821;DHT22;64454;51.984;9.838;2023-07-16T05:06:59;21.50;1.00
75821;DHT22;64454;51.984;9.838;2023-07-16T05:09:27;21.50;1.00
75821;DHT22;64454;51.984;9.838;2023-07-16T05:11:54;21.60;1.00
75821;DHT22;64454;51.984;9.838;2023-07-16T05:14:22;21.60;1.00
75821;DHT22;64454;51.984;9.838;2023-07-16T05:16:52;21.60;1.00
75821;DHT22;64454;51.984;9.838;2023-07-16T05:19:20;21.60;1.00
75821;DHT22;64454;51.984;9.838;2023-07-16T05:21:47;21.60;1.00
75821;DHT22;64454;51.984;9.838;2023-07-16T05:24:14;21.60;1.00
75821;DHT22;64454;51.984;9.838;2023-07-16T05:26:43;21.50;1.00
75821;DHT22;64454;51.984;9.838;2023-07-16T05:29:10;21.50;1.00
75821;DHT22;64454;51.984;9.838;2023-07-16T05:31:38;21.60;1.00
75821;DHT22;64454;51.984;9.838;2023-07-16T05:34:05;21.50;1.00
75821;DHT22;64454;51.984;9.838;2023-07-16T05:36:33;21.60;1.00
75821;DHT22;64454;51.984;9.838;2023-07-16T05:39:00;21.70;1.00
75821;DHT22;64454;51.984;9.838;2023-07-16T05:41:27;21.80;1.00
75821;DHT22;64454;51.984;9.838;2023-07-16T05:43:54;21.80;1.00
75821;DHT22;64454;51.984;9.838;2023-07-16T05:46:20;21.80;1.00
75821;DHT22;64454;51.984;9.838;2023-07-16T05:48:49;22.00;1.00
75821;DHT22;64454;51.984;9.838;2023-07-16T05:51:16;22.00;1.00
75821;DHT22;64454;51.984;9.838;2023-07-16T05:53:43;22.00;1.00
75821;DHT22;64454;51.984;9.838;2023-07-16T05:56:10;21.90;1.00
75821;DHT22;64454;51.984;9.838;2023-07-16T05:58:37;21.90;1.00
75821;DHT22;64454;51.984;9.838;2023-07-16T06:01:05;21.90;1.00
75821;DHT22;64454;51.984;9.838;2023-07-16T06:03:32;22.00;1.00
75821;DHT22;64454;51.984;9.838;2023-07-16T06:06:00;22.00;1.00
75821;DHT22;64454;51.984;9.838;2023-07-16T06:08:28;22.00;1.00
75821;DHT22;64454;51.984;9.838;2023-07-16T06:10:55;22.00;1.00
75821;DHT22;64454;51.984;9.838;2023-07-16T06:13:22;21.90;1.00
75821;DHT22;64454;51.984;9.838;2023-07-16T06:15:49;22.00;1.00
75821;DHT22;64454;51.984;9.838;2023-07-16T06:18:16;22.10;1.00
75821;DHT22;64454;51.984;9.838;2023-07-16T06:20:43;22.20;1.00
75821;DHT22;64454;51.984;9.838;2023-07-16T06:23:12;22.20;1.00
75821;DHT22;64454;51.984;9.838;2023-07-16T06:25:42;22.20;1.00
75821;DHT22;64454;51.984;9.838;2023-07-16T06:28:10;22.20;1.00
75821;DHT22;64454;51.984;9.838;2023-07-16T06:30:37;22.20;1.00
75821;DHT22;64454;51.984;9.838;2023-07-16T06:33:04;22.40;1.00
75821;DHT22;64454;51.984;9.838;2023-07-16T06:35:31;22.50;1.00
75821;DHT22;64454;51.984;9.838;2023-07-16T06:37:58;22.40;1.00
75821;DHT22;64454;51.984;9.838;2023-07-16T06:40:28;22.40;1.00
75821;DHT22;64454;51.984;9.838;2023-07-16T06:42:56;22.30;1.00
75821;DHT22;64454;51.984;9.838;2023-07-16T06:45:22;22.40;1.00
75821;DHT22;64454;51.984;9.838;2023-07-16T06:47:49;22.40;1.00
75821;DHT22;64454;51.984;9.838;2023-07-16T06:50:16;22.40;1.00
75821;DHT22;64454;51.984;9.838;2023-07-16T06:52:43;22.30;1.00
75821;DHT22;64454;51.984;9.838;2023-07-16T06:55:10;22.50;1.00
75821;DHT22;64454;51.984;9.838;2023-07-16T06:57:39;22.60;1.00
75821;DHT22;64454;51.984;9.838;2023-07-16T07:00:07;22.70;1.00
75821;DHT22;64454;51.984;9.838;2023-07-16T07:02:36;22.80;1.00
75821;DHT22;64454;51.984;9.838;2023-07-16T07:05:04;22.90;1.00
75821;DHT22;64454;51.984;9.838;2023-07-16T07:07:31;23.00;1.00
75821;DHT22;64454;51.984;9.838;2023-07-16T07:09:58;23.20;1.00
75821;DHT22;64454;51.984;9.838;2023-07-16T07:12:25;23.20;1.00
75821;DHT22;64454;51.984;9.838;2023-07-16T07:14:53;23.30;1.00
75821;DHT22;64454;51.984;9.838;2023-07-16T07:17:20;23.30;1.00
75821;DHT22;64454;51.984;9.838;2023-07-16T07:19:47;23.20;1.00
75821;DHT22;64454;51.984;9.838;2023-07-16T07:22:14;23.40;1.00
75821;DHT22;64454;51.984;9.838;2023-07-16T07:24:41;23.50;1.00
75821;DHT22;64454;51.984;9.838;2023-07-16T07:27:08;23.50;1.00
75821;DHT22;64454;51.984;9.838;2023-07-16T07:29:35;23.70;1.00
75821;DHT22;64454;51.984;9.838;2023-07-16T07:32:03;23.90;1.00
75821;DHT22;64454;51.984;9.838;2023-07-16T07:34:31;24.00;1.00
75821;DHT22;64454;51.984;9.838;2023-07-16T07:36:58;24.10;1.00
75821;DHT22;64454;51.984;9.838;2023-07-16T07:39:25;24.10;1.00
75821;DHT22;64454;51.984;9.838;2023-07-16T07:41:52;24.10;1.00
75821;DHT22;64454;51.984;9.838;2023-07-16T07:44:20;24.00;1.00
75821;DHT22;64454;51.984;9.838;2023-07-16T07:46:47;24.10;1.00
75821;DHT22;64454;51.984;9.838;2023-07-16T07:49:17;24.20;1.00
75821;DHT22;64454;51.984;9.838;2023-07-16T07:51:45;24.20;1.00
75821;DHT22;64454;51.984;9.838;2023-07-16T07:54:16;24.30;1.00
75821;DHT22;64454;51.984;9.838;2023-07-16T07:56:45;24.30;1.00
75821;DHT22;64454;51.984;9.838;2023-07-16T07:59:13;24.30;1.00
75821;DHT22;64454;51.984;9.838;2023-07-16T08:01:41;24.30;1.00
75821;DHT22;64454;51.984;9.838;2023-07-16T08:04:07;24.20;1.00
75821;DHT22;64454;51.984;9.838;2023-07-16T08:06:36;24.20;1.00
75821;DHT22;64454;51.984;9.838;2023-07-16T08:09:03;24.30;1.00
75821;DHT22;64454;51.984;9.838;2023-07-16T08:11:30;24.30;1.00
75821;DHT22;64454;51.984;9.838;2023-07-16T08:13:57;24.50;1.00
75821;DHT22;64454;51.984;9.838;2023-07-16T08:16:24;24.60;1.00
75821;DHT22;64454;51.984;9.838;2023-07-16T08:18:51;24.60;1.00
75821;DHT22;64454;51.984;9.838;2023-07-16T08:21:18;24.80;1.00
75821;DHT22;64454;51.984;9.838;2023-07-16T08:23:47;24.70;1.00
75821;DHT22;64454;51.984;9.838;2023-07-16T08:26:14;24.60;1.00
75821;DHT22;64454;51.984;9.838;2023-07-16T08:28:42;24.60;1.00
75821;DHT22;64454;51.984;9.838;2023-07-16T08:31:09;24.60;1.00
75821;DHT22;64454;51.984;9.838;2023-07-16T08:33:36;24.70;1.00
75821;DHT22;64454;51.984;9.838;2023-07-16T08:36:04;24.90;1.00
75821;DHT22;64454;51.984;9.838;2023-07-16T08:38:33;24.90;1.00
75821;DHT22;64454;51.984;9.838;2023-07-16T08:41:01;25.20;1.00
75821;DHT22;64454;51.984;9.838;2023-07-16T08:43:28;25.50;1.00
75821;DHT22;64454;51.984;9.838;2023-07-16T08:45:56;25.80;1.00
75821;DHT22;64454;51.984;9.838;2023-07-16T08:48:23;25.80;1.00
75821;DHT22;64454;51.984;9.838;2023-07-16T08:50:51;26.10;1.00
75821;DHT22;64454;51.984;9.838;2023-07-16T08:53:18;26.00;1.00
75821;DHT22;64454;51.984;9.838;2023-07-16T08:55:47;25.90;1.00
75821;DHT22;64454;51.984;9.838;2023-07-16T08:58:15;26.00;1.00
75821;DHT22;64454;51.984;9.838;2023-07-16T09:00:44;26.00;1.00
75821;DHT22;64454;51.984;9.838;2023-07-16T09:03:12;26.10;1.00
75821;DHT22;64454;51.984;9.838;2023-07-16T09:05:39;26.40;1.00
75821;DHT22;64454;51.984;9.838;2023-07-16T09:08:07;26.50;1.00
75821;DHT22;64454;51.984;9.838;2023-07-16T09:10:34;26.60;1.00
75821;DHT22;64454;51.984;9.838;2023-07-16T09:13:01;26.90;1.00
75821;DHT22;64454;51.984;9.838;2023-07-16T09:15:30;26.80;1.00
75821;DHT22;64454;51.984;9.838;2023-07-16T09:17:59;26.70;1.00
75821;DHT22;64454;51.984;9.838;2023-07-16T09:20:26;26.70;1.00
75821;DHT22;64454;51.984;9.838;2023-07-16T09:22:56;26.70;1.00
75821;DHT22;64454;51.984;9.838;2023-07-16T09:25:26;26.60;1.00
75821;DHT22;64454;51.984;9.838;2023-07-16T09:27:53;26.60;1.00
75821;DHT22;64454;51.984;9.838;2023-07-16T09:30:20;26.80;1.00
75821;DHT22;64454;51.984;9.838;2023-07-16T09:32:48;27.10;1.00
75821;DHT22;64454;51.984;9.838;2023-07-16T09:35:16;27.40;1.00
75821;DHT22;64454;51.984;9.838;2023-07-16T09:37:44;27.50;1.00
75821;DHT22;64454;51.984;9.838;2023-07-16T09:40:11;27.50;1.00
75821;DHT22;64454;51.984;9.838;2023-07-16T09:42:40;27.70;1.00
75821;DHT22;64454;51.984;9.838;2023-07-16T09:45:13;27.60;1.00
75821;DHT22;64454;51.984;9.838;2023-07-16T09:47:43;27.70;1.00
75821;DHT22;64454;51.984;9.838;2023-07-16T09:50:12;27.70;1.00
75821;DHT22;64454;51.984;9.838;2023-07-16T09:52:39;27.70;1.00
75821;DHT22;64454;51.984;9.838;2023-07-16T09:55:09;27.50;1.00
75821;DHT22;64454;51.984;9.838;2023-07-16T09:57:38;27.60;1.00
75821;DHT22;64454;51.984;9.838;2023-07-16T10:00:09;27.60;1.00
75821;DHT22;64454;51.984;9.838;2023-07-16T10:02:39;27.80;1.00
75821;DHT22;64454;51.984;9.838;2023-07-16T10:05:16;27.60;1.00
75821;DHT22;64454;51.984;9.838;2023-07-16T10:07:52;27.40;1.00
75821;DHT22;64454;51.984;9.838;2023-07-16T10:10:20;27.70;1.00
75821;DHT22;64454;51.984;9.838;2023-07-16T10:13:01;27.60;1.00
75821;DHT22;64454;51.984;9.838;2023-07-16T10:15:29;27.90;1.00
75821;DHT22;64454;51.984;9.838;2023-07-16T10:17:57;28.10;1.00
75821;DHT22;64454;51.984;9.838;2023-07-16T10:20:32;27.80;1.00
75821;DHT22;64454;51.984;9.838;2023-07-16T10:23:10;28.00;1.00
75821;DHT22;64454;51.984;9.838;2023-07-16T10:25:39;28.00;1.00
75821;DHT22;64454;51.984;9.838;2023-07-16T10:28:07;27.90;1.00
75821;DHT22;64454;51.984;9.838;2023-07-16T10:30:34;27.90;1.00
75821;DHT22;64454;51.984;9.838;2023-07-16T10:33:03;27.70;1.00
75821;DHT22;64454;51.984;9.838;2023-07-16T10:35:42;27.90;1.00
75821;DHT22;64454;51.984;9.838;2023-07-16T10:38:09;28.00;1.00
75821;DHT22;64454;51.984;9.838;2023-07-16T10:40:40;28.20;1.00
75821;DHT22;64454;51.984;9.838;2023-07-16T10:43:07;28.30;1.00
75821;DHT22;64454;51.984;9.838;2023-07-16T10:45:34;28.50;1.00
75821;DHT22;64454;51.984;9.838;2023-07-16T10:48:02;28.40;1.00
75821;DHT22;64454;51.984;9.838;2023-07-16T10:50:32;28.50;1.00
75821;DHT22;64454;51.984;9.838;2023-07-16T10:53:01;28.70;1.00
75821;DHT22;64454;51.984;9.838;2023-07-16T10:55:29;28.80;1.00
75821;DHT22;64454;51.984;9.838;2023-07-16T10:57:58;29.10;1.00
75821;DHT22;64454;51.984;9.838;2023-07-16T11:00:30;28.90;1.00
75821;DHT22;64454;51.984;9.838;2023-07-16T11:02:56;28.90;1.00
75821;DHT22;64454;51.984;9.838;2023-07-16T11:05:23;29.10;1.00
75821;DHT22;64454;51.984;9.838;2023-07-16T11:07:50;29.50;1.00
75821;DHT22;64454;51.984;9.838;2023-07-16T11:10:19;29.70;1.00
75821;DHT22;64454;51.984;9.838;2023-07-16T11:12:50;29.50;1.00
75821;DHT22;64454;51.984;9.838;2023-07-16T11:15:18;29.30;1.00
75821;DHT22;64454;51.984;9.838;2023-07-16T11:17:55;29.60;1.00
75821;DHT22;64454;51.984;9.838;2023-07-16T11:20:23;29.50;1.00
75821;DHT22;64454;51.984;9.838;2023-07-16T11:22:50;29.60;1.00
75821;DHT22;64454;51.984;9.838;2023-07-16T11:25:18;30.00;1.00
75821;DHT22;64454;51.984;9.838;2023-07-16T11:27:47;30.30;1.00
75821;DHT22;64454;51.984;9.838;2023-07-16T11:30:14;30.00;1.00
75821;DHT22;64454;51.984;9.838;2023-07-16T11:32:43;29.90;1.00
75821;DHT22;64454;51.984;9.838;2023-07-16T11:35:16;29.90;1.00
75821;DHT22;64454;51.984;9.838;2023-07-16T11:37:44;29.50;1.00
75821;DHT22;64454;51.984;9.838;2023-07-16T11:40:16;28.60;1.00
75821;DHT22;64454;51.984;9.838;2023-07-16T11:42:46;28.60;1.00
75821;DHT22;64454;51.984;9.838;2023-07-16T11:45:18;28.50;1.00
75821;DHT22;64454;51.984;9.838;2023-07-16T11:47:48;28.60;1.00
75821;DHT22;64454;51.984;9.838;2023-07-16T11:50:16;28.80;1.00
75821;DHT22;64454;51.984;9.838;2023-07-16T11:52:42;29.10;1.00
75821;DHT22;64454;51.984;9.838;2023-07-16T11:55:19;29.10;1.00
75821;DHT22;64454;51.984;9.838;2023-07-16T11:57:46;29.40;1.00
75821;DHT22;64454;51.984;9.838;2023-07-16T12:00:13;29.50;1.00
75821;DHT22;64454;51.984;9.838;2023-07-16T12:02:42;29.60;1.00
75821;DHT22;64454;51.984;9.838;2023-07-16T12:05:16;29.70;1.00
75821;DHT22;64454;51.984;9.838;2023-07-16T12:07:43;29.70;1.00
75821;DHT22;64454;51.984;9.838;2023-07-16T12:10:10;29.60;1.00
75821;DHT22;64454;51.984;9.838;2023-07-16T12:12:38;29.80;1.00
75821;DHT22;64454;51.984;9.838;2023-07-16T12:15:05;29.70;1.00
75821;DHT22;64454;51.984;9.838;2023-07-16T12:17:33;30.00;1.00
75821;DHT22;64454;51.984;9.838;2023-07-16T12:20:00;30.10;1.00
75821;DHT22;64454;51.984;9.838;2023-07-16T12:22:27;29.70;1.00
75821;DHT22;64454;51.984;9.838;2023-07-16T12:24:54;29.60;1.00
75821;DHT22;64454;51.984;9.838;2023-07-16T12:27:21;29.50;1.00
75821;DHT22;64454;51.984;9.838;2023-07-16T12:29:49;29.50;1.00
75821;DHT22;64454;51.984;9.838;2023-07-16T12:32:17;29.70;1.00
75821;DHT22;64454;51.984;9.838;2023-07-16T12:34:45;30.00;1.00
75821;DHT22;64454;51.984;9.838;2023-07-16T12:37:12;30.10;1.00
75821;DHT22;64454;51.984;9.838;2023-07-16T12:39:39;30.00;1.00
75821;DHT22;64454;51.984;9.838;2023-07-16T12:42:06;29.60;1.00
75821;DHT22;64454;51.984;9.838;2023-07-16T12:44:33;29.70;1.00
75821;DHT22;64454;51.984;9.838;2023-07-16T12:47:02;29.90;1.00
75821;DHT22;64454;51.984;9.838;2023-07-16T12:49:30;30.30;1.00
75821;DHT22;64454;51.984;9.838;2023-07-16T12:51:57;30.50;1.00
75821;DHT22;64454;51.984;9.838;2023-07-16T12:54:24;30.70;1.00
75821;DHT22;64454;51.984;9.838;2023-07-16T12:56:51;30.60;1.00
75821;DHT22;64454;51.984;9.838;2023-07-16T12:59:19;30.50;1.00
75821;DHT22;64454;51.984;9.838;2023-07-16T13:01:47;29.90;1.00
75821;DHT22;64454;51.984;9.838;2023-07-16T13:04:19;29.80;1.00
75821;DHT22;64454;51.984;9.838;2023-07-16T13:06:46;29.60;1.00
75821;DHT22;64454;51.984;9.838;2023-07-16T13:09:15;29.90;1.00
75821;DHT22;64454;51.984;9.838;2023-07-16T13:11:44;29.60;1.00
75821;DHT22;64454;51.984;9.838;2023-07-16T13:14:11;29.40;1.00
75821;DHT22;64454;51.984;9.838;2023-07-16T13:16:38;29.20;1.00
75821;DHT22;64454;51.984;9.838;2023-07-16T13:19:05;29.30;1.00
75821;DHT22;64454;51.984;9.838;2023-07-16T13:21:33;29.40;1.00
75821;DHT22;64454;51.984;9.838;2023-07-16T13:24:00;29.50;1.00
75821;DHT22;64454;51.984;9.838;2023-07-16T13:26:27;29.70;1.00
75821;DHT22;64454;51.984;9.838;2023-07-16T13:28:54;29.90;1.00
75821;DHT22;64454;51.984;9.838;2023-07-16T13:31:21;30.10;1.00
75821;DHT22;64454;51.984;9.838;2023-07-16T13:33:48;30.40;1.00
75821;DHT22;64454;51.984;9.838;2023-07-16T13:36:15;30.50;1.00
75821;DHT22;64454;51.984;9.838;2023-07-16T13:38:43;30.60;1.00
75821;DHT22;64454;51.984;9.838;2023-07-16T13:41:10;30.50;1.00
75821;DHT22;64454;51.984;9.838;2023-07-16T13:43:37;30.30;1.00
75821;DHT22;64454;51.984;9.838;2023-07-16T13:46:04;30.30;1.00
75821;DHT22;64454;51.984;9.838;2023-07-16T13:48:31;30.10;1.00
75821;DHT22;64454;51.984;9.838;2023-07-16T13:50:58;29.90;1.00
75821;DHT22;64454;51.984;9.838;2023-07-16T13:53:25;29.90;1.00
75821;DHT22;64454;51.984;9.838;2023-07-16T13:55:53;29.90;1.00
75821;DHT22;64454;51.984;9.838;2023-07-16T13:58:20;30.10;1.00
75821;DHT22;64454;51.984;9.838;2023-07-16T14:00:47;30.50;1.00
75821;DHT22;64454;51.984;9.838;2023-07-16T14:03:14;30.70;1.00
75821;DHT22;64454;51.984;9.838;2023-07-16T14:05:41;30.70;1.00
75821;DHT22;64454;51.984;9.838;2023-07-16T14:08:08;30.30;1.00
75821;DHT22;64454;51.984;9.838;2023-07-16T14:10:35;30.00;1.00
75821;DHT22;64454;51.984;9.838;2023-07-16T14:13:03;29.60;1.00
75821;DHT22;64454;51.984;9.838;2023-07-16T14:15:30;29.60;1.00
75821;DHT22;64454;51.984;9.838;2023-07-16T14:17:57;29.80;1.00
75821;DHT22;64454;51.984;9.838;2023-07-16T14:20:24;29.70;1.00
75821;DHT22;64454;51.984;9.838;2023-07-16T14:22:51;29.50;1.00
75821;DHT22;64454;51.984;9.838;2023-07-16T14:25:18;29.40;1.00
75821;DHT22;64454;51.984;9.838;2023-07-16T14:27:45;29.50;1.00
75821;DHT22;64454;51.984;9.838;2023-07-16T14:30:15;29.80;1.00
75821;DHT22;64454;51.984;9.838;2023-07-16T14:32:42;29.70;1.00
75821;DHT22;64454;51.984;9.838;2023-07-16T14:35:09;29.60;1.00
75821;DHT22;64454;51.984;9.838;2023-07-16T14:37:37;29.60;1.00
75821;DHT22;64454;51.984;9.838;2023-07-16T14:40:05;29.40;1.00
75821;DHT22;64454;51.984;9.838;2023-07-16T14:42:34;29.10;1.00
75821;DHT22;64454;51.984;9.838;2023-07-16T14:45:01;29.00;1.00
75821;DHT22;64454;51.984;9.838;2023-07-16T14:47:29;29.00;1.00
75821;DHT22;64454;51.984;9.838;2023-07-16T14:49:57;29.00;1.00
75821;DHT22;64454;51.984;9.838;2023-07-16T14:52:24;29.10;1.00
75821;DHT22;64454;51.984;9.838;2023-07-16T14:54:50;29.00;1.00
75821;DHT22;64454;51.984;9.838;2023-07-16T14:57:17;28.90;1.00
75821;DHT22;64454;51.984;9.838;2023-07-16T14:59:44;28.90;1.00
75821;DHT22;64454;51.984;9.838;2023-07-16T15:02:11;29.10;1.00
75821;DHT22;64454;51.984;9.838;2023-07-16T15:04:39;29.30;1.00
75821;DHT22;64454;51.984;9.838;2023-07-16T15:07:06;29.20;1.00
75821;DHT22;64454;51.984;9.838;2023-07-16T15:09:34;29.10;1.00
75821;DHT22;64454;51.984;9.838;2023-07-16T15:12:03;29.10;1.00
75821;DHT22;64454;51.984;9.838;2023-07-16T15:14:31;28.70;1.00
75821;DHT22;64454;51.984;9.838;2023-07-16T15:16:58;28.50;1.00
75821;DHT22;64454;51.984;9.838;2023-07-16T15:19:25;28.60;1.00
75821;DHT22;64454;51.984;9.838;2023-07-16T15:21:53;28.80;1.00
75821;DHT22;64454;51.984;9.838;2023-07-16T15:24:20;28.80;1.00
75821;DHT22;64454;51.984;9.838;2023-07-16T15:26:47;28.80;1.00
75821;DHT22;64454;51.984;9.838;2023-07-16T15:29:15;28.80;1.00
75821;DHT22;64454;51.984;9.838;2023-07-16T15:31:44;28.70;1.00
75821;DHT22;64454;51.984;9.838;2023-07-16T15:34:11;28.60;1.00
75821;DHT22;64454;51.984;9.838;2023-07-16T15:36:39;28.60;1.00
75821;DHT22;64454;51.984;9.838;2023-07-16T15:39:07;28.70;1.00
75821;DHT22;64454;51.984;9.838;2023-07-16T15:41:34;28.70;1.00
75821;DHT22;64454;51.984;9.838;2023-07-16T15:44:01;28.60;1.00
75821;DHT22;64454;51.984;9.838;2023-07-16T15:46:29;28.60;1.00
75821;DHT22;64454;51.984;9.838;2023-07-16T15:48:56;28.80;1.00
75821;DHT22;64454;51.984;9.838;2023-07-16T15:51:23;28.70;1.00